sensor_id;sensor_type;location;lat;lon;timestamp;temperature;humidity
53876;DHT22;39789;53.216;5.624;2022-09-03T00:01:02;17.60;95.40
53876;DHT22;39789;53.216;5.624;2022-09-03T00:03:38;17.60;95.40
53876;DHT22;39789;53.216;5.624;2022-09-03T00:06:25;17.60;95.50
53876;DHT22;39789;53.216;5.624;2022-09-03T00:08:57;17.50;95.30
53876;DHT22;39789;53.216;5.624;2022-09-03T00:11:45;17.50;95.50
53876;DHT22;39789;53.216;5.624;2022-09-03T00:14:19;17.50;95.50
53876;DHT22;39789;53.216;5.624;2022-09-03T00:17:10;17.40;95.40
53876;DHT22;39789;53.216;5.624;2022-09-03T00:22:38;17.40;95.30
53876;DHT22;39789;53.216;5.624;2022-09-03T00:25:08;17.50;95.60
53876;DHT22;39789;53.216;5.624;2022-09-03T00:27:39;17.40;95.50
53876;DHT22;39789;53.216;5.624;2022-09-03T00:30:10;17.40;95.40
53876;DHT22;39789;53.216;5.624;2022-09-03T00:32:42;17.40;95.50
53876;DHT22;39789;53.216;5.624;2022-09-03T00:35:40;17.40;95.50
53876;DHT22;39789;53.216;5.624;2022-09-03T00:38:07;17.30;95.40
53876;DHT22;39789;53.216;5.624;2022-09-03T00:40:51;17.40;95.40
53876;DHT22;39789;53.216;5.624;2022-09-03T00:43:27;17.30;95.40
53876;DHT22;39789;53.216;5.624;2022-09-03T00:49:19;17.30;95.30
53876;DHT22;39789;53.216;5.624;2022-09-03T00:54:26;17.30;95.40
53876;DHT22;39789;53.216;5.624;2022-09-03T00:59:54;17.30;95.30
53876;DHT22;39789;53.216;5.624;2022-09-03T01:02:56;17.20;95.40
53876;DHT22;39789;53.216;5.624;2022-09-03T01:05:33;17.20;95.50
53876;DHT22;39789;53.216;5.624;2022-09-03T01:08:06;17.10;95.60
53876;DHT22;39789;53.216;5.624;2022-09-03T01:16:47;17.00;95.70
53876;DHT22;39789;53.216;5.624;2022-09-03T01:22:30;16.90;95.70
53876;DHT22;39789;53.216;5.624;2022-09-03T01:25:13;16.90;95.60
53876;DHT22;39789;53.216;5.624;2022-09-03T01:28:00;16.90;95.60
53876;DHT22;39789;53.216;5.624;2022-09-03T01:30:29;16.80;95.70
53876;DHT22;39789;53.216;5.624;2022-09-03T01:33:10;16.80;95.70
53876;DHT22;39789;53.216;5.624;2022-09-03T01:35:52;16.80;95.60
53876;DHT22;39789;53.216;5.624;2022-09-03T01:50:09;16.60;96.00
53876;DHT22;39789;53.216;5.624;2022-09-03T01:55:40;16.60;96.10
53876;DHT22;39789;53.216;5.624;2022-09-03T01:58:16;16.60;96.20
53876;DHT22;39789;53.216;5.624;2022-09-03T02:00:48;16.60;96.30
53876;DHT22;39789;53.216;5.624;2022-09-03T02:03:16;16.60;96.30
53876;DHT22;39789;53.216;5.624;2022-09-03T02:05:42;16.60;96.30
53876;DHT22;39789;53.216;5.624;2022-09-03T02:08:09;16.60;96.30
53876;DHT22;39789;53.216;5.624;2022-09-03T02:10:46;16.60;96.40
53876;DHT22;39789;53.216;5.624;2022-09-03T02:13:35;16.60;96.40
53876;DHT22;39789;53.216;5.624;2022-09-03T02:16:10;16.60;96.50
53876;DHT22;39789;53.216;5.624;2022-09-03T02:18:45;16.50;96.40
53876;DHT22;39789;53.216;5.624;2022-09-03T02:21:15;16.50;96.50
53876;DHT22;39789;53.216;5.624;2022-09-03T02:23:42;16.50;96.50
53876;DHT22;39789;53.216;5.624;2022-09-03T02:26:09;16.50;96.60
53876;DHT22;39789;53.216;5.624;2022-09-03T02:28:36;16.50;96.60
53876;DHT22;39789;53.216;5.624;2022-09-03T02:31:02;17.00;96.80
53876;DHT22;39789;53.216;5.624;2022-09-03T02:33:30;16.40;96.60
53876;DHT22;39789;53.216;5.624;2022-09-03T02:35:56;16.40;96.70
53876;DHT22;39789;53.216;5.624;2022-09-03T02:38:24;16.40;96.70
53876;DHT22;39789;53.216;5.624;2022-09-03T02:40:53;16.40;96.70
53876;DHT22;39789;53.216;5.624;2022-09-03T02:43:46;16.40;97.00
53876;DHT22;39789;53.216;5.624;2022-09-03T02:46:26;16.40;96.90
53876;DHT22;39789;53.216;5.624;2022-09-03T02:48:54;16.30;96.90
53876;DHT22;39789;53.216;5.624;2022-09-03T02:51:20;16.30;96.80
53876;DHT22;39789;53.216;5.624;2022-09-03T02:53:46;16.30;96.90
53876;DHT22;39789;53.216;5.624;2022-09-03T02:56:12;16.30;96.90
53876;DHT22;39789;53.216;5.624;2022-09-03T02:58:37;16.30;96.90
53876;DHT22;39789;53.216;5.624;2022-09-03T03:01:03;16.30;96.90
53876;DHT22;39789;53.216;5.624;2022-09-03T03:03:31;16.30;96.80
53876;DHT22;39789;53.216;5.624;2022-09-03T03:06:00;16.30;96.90
53876;DHT22;39789;53.216;5.624;2022-09-03T03:08:27;16.60;97.00
53876;DHT22;39789;53.216;5.624;2022-09-03T03:10:57;16.20;96.90
53876;DHT22;39789;53.216;5.624;2022-09-03T03:13:29;16.20;97.10
53876;DHT22;39789;53.216;5.624;2022-09-03T03:15:59;16.20;97.10
53876;DHT22;39789;53.216;5.624;2022-09-03T03:18:25;16.20;97.00
53876;DHT22;39789;53.216;5.624;2022-09-03T03:20:53;16.20;97.10
53876;DHT22;39789;53.216;5.624;2022-09-03T03:23:19;16.10;97.20
53876;DHT22;39789;53.216;5.624;2022-09-03T03:25:45;16.10;97.30
53876;DHT22;39789;53.216;5.624;2022-09-03T03:28:11;16.10;97.30
53876;DHT22;39789;53.216;5.624;2022-09-03T03:30:38;16.10;97.20
53876;DHT22;39789;53.216;5.624;2022-09-03T03:33:05;16.10;97.30
53876;DHT22;39789;53.216;5.624;2022-09-03T03:35:31;16.00;97.40
53876;DHT22;39789;53.216;5.624;2022-09-03T03:37:57;16.00;97.40
53876;DHT22;39789;53.216;5.624;2022-09-03T03:40:23;16.00;97.40
53876;DHT22;39789;53.216;5.624;2022-09-03T03:42:49;15.90;97.40
53876;DHT22;39789;53.216;5.624;2022-09-03T03:45:15;15.90;97.40
53876;DHT22;39789;53.216;5.624;2022-09-03T03:47:41;15.90;97.50
53876;DHT22;39789;53.216;5.624;2022-09-03T03:50:07;15.90;97.40
53876;DHT22;39789;53.216;5.624;2022-09-03T03:52:32;15.90;97.50
53876;DHT22;39789;53.216;5.624;2022-09-03T03:54:58;15.90;97.40
53876;DHT22;39789;53.216;5.624;2022-09-03T03:57:23;15.90;97.50
53876;DHT22;39789;53.216;5.624;2022-09-03T03:59:49;15.90;97.60
53876;DHT22;39789;53.216;5.624;2022-09-03T04:02:16;15.90;97.60
53876;DHT22;39789;53.216;5.624;2022-09-03T04:04:42;15.90;97.50
53876;DHT22;39789;53.216;5.624;2022-09-03T04:07:08;15.80;97.50
53876;DHT22;39789;53.216;5.624;2022-09-03T04:09:33;15.80;97.50
53876;DHT22;39789;53.216;5.624;2022-09-03T04:11:59;15.80;97.50
53876;DHT22;39789;53.216;5.624;2022-09-03T04:14:26;15.80;97.40
53876;DHT22;39789;53.216;5.624;2022-09-03T04:16:52;15.90;97.50
53876;DHT22;39789;53.216;5.624;2022-09-03T04:19:18;15.90;97.50
53876;DHT22;39789;53.216;5.624;2022-09-03T04:21:44;15.90;97.60
53876;DHT22;39789;53.216;5.624;2022-09-03T04:24:10;15.80;97.70
53876;DHT22;39789;53.216;5.624;2022-09-03T04:26:36;15.80;97.70
53876;DHT22;39789;53.216;5.624;2022-09-03T04:29:04;15.80;97.70
53876;DHT22;39789;53.216;5.624;2022-09-03T04:31:31;15.80;97.70
53876;DHT22;39789;53.216;5.624;2022-09-03T04:33:57;15.80;97.70
53876;DHT22;39789;53.216;5.624;2022-09-03T04:36:25;16.10;97.90
53876;DHT22;39789;53.216;5.624;2022-09-03T04:38:53;15.80;97.80
53876;DHT22;39789;53.216;5.624;2022-09-03T04:41:21;15.80;97.80
53876;DHT22;39789;53.216;5.624;2022-09-03T04:43:50;15.80;97.70
53876;DHT22;39789;53.216;5.624;2022-09-03T04:46:15;15.80;97.80
53876;DHT22;39789;53.216;5.624;2022-09-03T04:48:41;15.80;97.70
53876;DHT22;39789;53.216;5.624;2022-09-03T04:51:11;15.80;97.70
53876;DHT22;39789;53.216;5.624;2022-09-03T04:53:42;15.80;97.80
53876;DHT22;39789;53.216;5.624;2022-09-03T04:56:24;15.80;97.70
53876;DHT22;39789;53.216;5.624;2022-09-03T04:58:54;15.80;97.70
53876;DHT22;39789;53.216;5.624;2022-09-03T05:01:22;15.80;97.70
53876;DHT22;39789;53.216;5.624;2022-09-03T05:03:48;15.80;97.70
53876;DHT22;39789;53.216;5.624;2022-09-03T05:06:17;15.80;97.70
53876;DHT22;39789;53.216;5.624;2022-09-03T05:08:53;16.10;97.80
53876;DHT22;39789;53.216;5.624;2022-09-03T05:11:19;15.80;97.80
53876;DHT22;39789;53.216;5.624;2022-09-03T05:13:49;15.80;97.70
53876;DHT22;39789;53.216;5.624;2022-09-03T05:16:16;15.80;97.80
53876;DHT22;39789;53.216;5.624;2022-09-03T05:18:43;15.80;97.90
53876;DHT22;39789;53.216;5.624;2022-09-03T05:21:11;15.80;97.90
53876;DHT22;39789;53.216;5.624;2022-09-03T05:23:39;15.70;97.90
53876;DHT22;39789;53.216;5.624;2022-09-03T05:26:08;15.70;98.00
53876;DHT22;39789;53.216;5.624;2022-09-03T05:28:35;15.70;98.00
53876;DHT22;39789;53.216;5.624;2022-09-03T05:31:06;15.80;98.00
53876;DHT22;39789;53.216;5.624;2022-09-03T05:33:36;15.80;98.10
53876;DHT22;39789;53.216;5.624;2022-09-03T05:36:05;15.80;98.10
53876;DHT22;39789;53.216;5.624;2022-09-03T05:38:31;15.80;98.20
53876;DHT22;39789;53.216;5.624;2022-09-03T05:40:58;15.80;98.20
53876;DHT22;39789;53.216;5.624;2022-09-03T05:43:25;15.80;98.00
53876;DHT22;39789;53.216;5.624;2022-09-03T05:45:51;15.80;98.20
53876;DHT22;39789;53.216;5.624;2022-09-03T05:48:21;15.80;98.30
53876;DHT22;39789;53.216;5.624;2022-09-03T05:50:46;15.80;98.20
53876;DHT22;39789;53.216;5.624;2022-09-03T05:53:13;15.90;98.20
53876;DHT22;39789;53.216;5.624;2022-09-03T05:55:38;15.90;98.20
53876;DHT22;39789;53.216;5.624;2022-09-03T05:58:04;16.00;98.20
53876;DHT22;39789;53.216;5.624;2022-09-03T06:00:29;16.00;98.20
53876;DHT22;39789;53.216;5.624;2022-09-03T06:02:55;16.00;98.10
53876;DHT22;39789;53.216;5.624;2022-09-03T06:05:22;16.00;98.20
53876;DHT22;39789;53.216;5.624;2022-09-03T06:07:48;16.00;98.30
53876;DHT22;39789;53.216;5.624;2022-09-03T06:10:15;16.00;98.30
53876;DHT22;39789;53.216;5.624;2022-09-03T06:12:42;16.00;98.40
53876;DHT22;39789;53.216;5.624;2022-09-03T06:15:10;16.10;98.30
53876;DHT22;39789;53.216;5.624;2022-09-03T06:17:37;16.20;98.30
53876;DHT22;39789;53.216;5.624;2022-09-03T06:20:03;16.50;98.20
53876;DHT22;39789;53.216;5.624;2022-09-03T06:22:28;16.30;98.10
53876;DHT22;39789;53.216;5.624;2022-09-03T06:24:55;16.40;98.20
53876;DHT22;39789;53.216;5.624;2022-09-03T06:27:21;16.50;98.20
53876;DHT22;39789;53.216;5.624;2022-09-03T06:29:47;16.50;98.20
53876;DHT22;39789;53.216;5.624;2022-09-03T06:32:13;16.60;98.20
53876;DHT22;39789;53.216;5.624;2022-09-03T06:34:39;16.60;98.10
53876;DHT22;39789;53.216;5.624;2022-09-03T06:37:04;16.70;98.10
53876;DHT22;39789;53.216;5.624;2022-09-03T06:39:30;16.70;98.10
53876;DHT22;39789;53.216;5.624;2022-09-03T06:41:55;16.70;98.00
53876;DHT22;39789;53.216;5.624;2022-09-03T06:44:21;16.70;98.30
53876;DHT22;39789;53.216;5.624;2022-09-03T06:46:47;16.80;98.20
53876;DHT22;39789;53.216;5.624;2022-09-03T06:49:13;16.70;98.20
53876;DHT22;39789;53.216;5.624;2022-09-03T06:51:39;16.80;98.30
53876;DHT22;39789;53.216;5.624;2022-09-03T06:54:07;16.90;98.30
53876;DHT22;39789;53.216;5.624;2022-09-03T06:56:34;17.00;98.00
53876;DHT22;39789;53.216;5.624;2022-09-03T06:59:05;17.10;97.80
53876;DHT22;39789;53.216;5.624;2022-09-03T07:01:32;17.10;98.00
53876;DHT22;39789;53.216;5.624;2022-09-03T07:04:00;17.10;98.10
53876;DHT22;39789;53.216;5.624;2022-09-03T07:06:28;17.10;97.90
53876;DHT22;39789;53.216;5.624;2022-09-03T07:08:55;17.20;97.90
53876;DHT22;39789;53.216;5.624;2022-09-03T07:11:31;17.30;97.90
53876;DHT22;39789;53.216;5.624;2022-09-03T07:13:58;17.40;98.30
53876;DHT22;39789;53.216;5.624;2022-09-03T07:16:29;17.40;98.20
53876;DHT22;39789;53.216;5.624;2022-09-03T07:18:56;17.50;98.10
53876;DHT22;39789;53.216;5.624;2022-09-03T07:21:26;17.50;97.70
53876;DHT22;39789;53.216;5.624;2022-09-03T07:23:53;17.50;97.90
53876;DHT22;39789;53.216;5.624;2022-09-03T07:28:46;17.60;98.10
53876;DHT22;39789;53.216;5.624;2022-09-03T07:31:19;17.70;97.60
53876;DHT22;39789;53.216;5.624;2022-09-03T07:33:47;17.70;97.60
53876;DHT22;39789;53.216;5.624;2022-09-03T07:36:16;17.90;97.40
53876;DHT22;39789;53.216;5.624;2022-09-03T07:38:43;18.00;97.50
53876;DHT22;39789;53.216;5.624;2022-09-03T07:41:10;18.10;97.20
53876;DHT22;39789;53.216;5.624;2022-09-03T07:43:44;18.10;97.00
53876;DHT22;39789;53.216;5.624;2022-09-03T07:49:22;18.70;96.20
53876;DHT22;39789;53.216;5.624;2022-09-03T07:51:48;19.20;95.30
53876;DHT22;39789;53.216;5.624;2022-09-03T07:57:57;19.90;94.80
53876;DHT22;39789;53.216;5.624;2022-09-03T08:00:24;20.20;94.60
53876;DHT22;39789;53.216;5.624;2022-09-03T08:02:51;20.30;94.50
53876;DHT22;39789;53.216;5.624;2022-09-03T08:05:17;20.60;94.20
53876;DHT22;39789;53.216;5.624;2022-09-03T08:07:46;20.60;93.90
53876;DHT22;39789;53.216;5.624;2022-09-03T08:10:11;20.70;94.20
53876;DHT22;39789;53.216;5.624;2022-09-03T08:12:38;20.60;94.30
53876;DHT22;39789;53.216;5.624;2022-09-03T08:15:03;20.20;94.60
53876;DHT22;39789;53.216;5.624;2022-09-03T08:17:29;19.90;94.90
53876;DHT22;39789;53.216;5.624;2022-09-03T08:19:55;19.70;95.40
53876;DHT22;39789;53.216;5.624;2022-09-03T08:22:21;20.10;95.30
53876;DHT22;39789;53.216;5.624;2022-09-03T08:24:50;19.60;95.40
53876;DHT22;39789;53.216;5.624;2022-09-03T08:27:16;19.50;95.40
53876;DHT22;39789;53.216;5.624;2022-09-03T08:29:47;19.80;95.90
53876;DHT22;39789;53.216;5.624;2022-09-03T08:32:13;19.60;95.30
53876;DHT22;39789;53.216;5.624;2022-09-03T08:34:39;19.60;95.70
53876;DHT22;39789;53.216;5.624;2022-09-03T08:37:05;19.70;95.90
53876;DHT22;39789;53.216;5.624;2022-09-03T08:39:31;19.80;95.90
53876;DHT22;39789;53.216;5.624;2022-09-03T08:42:20;20.00;95.50
53876;DHT22;39789;53.216;5.624;2022-09-03T08:44:57;19.90;95.20
53876;DHT22;39789;53.216;5.624;2022-09-03T08:47:36;20.00;95.00
53876;DHT22;39789;53.216;5.624;2022-09-03T08:52:50;20.10;95.80
53876;DHT22;39789;53.216;5.624;2022-09-03T08:58:48;20.20;95.00
53876;DHT22;39789;53.216;5.624;2022-09-03T09:01:32;20.20;95.00
53876;DHT22;39789;53.216;5.624;2022-09-03T09:04:26;20.30;95.20
53876;DHT22;39789;53.216;5.624;2022-09-03T09:09:45;20.50;94.80
53876;DHT22;39789;53.216;5.624;2022-09-03T09:15:02;20.60;94.50
53876;DHT22;39789;53.216;5.624;2022-09-03T09:23:12;20.90;95.00
53876;DHT22;39789;53.216;5.624;2022-09-03T09:25:48;20.90;94.80
53876;DHT22;39789;53.216;5.624;2022-09-03T09:28:28;20.90;94.90
53876;DHT22;39789;53.216;5.624;2022-09-03T09:30:56;21.00;94.50
53876;DHT22;39789;53.216;5.624;2022-09-03T09:33:22;21.00;94.40
53876;DHT22;39789;53.216;5.624;2022-09-03T09:35:48;21.10;94.70
53876;DHT22;39789;53.216;5.624;2022-09-03T09:38:14;21.30;94.80
53876;DHT22;39789;53.216;5.624;2022-09-03T09:40:51;21.30;94.70
53876;DHT22;39789;53.216;5.624;2022-09-03T09:43:18;21.30;94.70
53876;DHT22;39789;53.216;5.624;2022-09-03T09:45:48;21.30;94.50
53876;DHT22;39789;53.216;5.624;2022-09-03T09:48:24;21.80;94.40
53876;DHT22;39789;53.216;5.624;2022-09-03T09:51:12;21.50;94.80
53876;DHT22;39789;53.216;5.624;2022-09-03T09:53:39;21.60;94.90
53876;DHT22;39789;53.216;5.624;2022-09-03T09:56:07;21.70;94.60
53876;DHT22;39789;53.216;5.624;2022-09-03T09:58:34;21.70;94.20
53876;DHT22;39789;53.216;5.624;2022-09-03T10:01:08;21.90;94.60
53876;DHT22;39789;53.216;5.624;2022-09-03T10:03:40;21.90;94.40
53876;DHT22;39789;53.216;5.624;2022-09-03T10:06:13;21.90;94.00
53876;DHT22;39789;53.216;5.624;2022-09-03T10:09:15;22.10;94.00
53876;DHT22;39789;53.216;5.624;2022-09-03T10:12:16;22.00;93.30
53876;DHT22;39789;53.216;5.624;2022-09-03T10:14:54;22.00;93.90
53876;DHT22;39789;53.216;5.624;2022-09-03T10:22:44;22.40;94.00
53876;DHT22;39789;53.216;5.624;2022-09-03T10:25:14;22.50;93.30
53876;DHT22;39789;53.216;5.624;2022-09-03T10:27:41;22.50;93.70
53876;DHT22;39789;53.216;5.624;2022-09-03T10:30:12;22.40;93.20
53876;DHT22;39789;53.216;5.624;2022-09-03T10:32:44;22.40;93.20
53876;DHT22;39789;53.216;5.624;2022-09-03T10:35:18;22.50;93.30
53876;DHT22;39789;53.216;5.624;2022-09-03T10:41:02;22.50;92.70
53876;DHT22;39789;53.216;5.624;2022-09-03T10:46:21;22.50;92.60
53876;DHT22;39789;53.216;5.624;2022-09-03T10:51:21;23.00;92.30
53876;DHT22;39789;53.216;5.624;2022-09-03T10:59:59;23.00;92.40
53876;DHT22;39789;53.216;5.624;2022-09-03T11:05:22;23.00;91.90
53876;DHT22;39789;53.216;5.624;2022-09-03T11:08:01;23.10;92.00
53876;DHT22;39789;53.216;5.624;2022-09-03T11:10:38;23.00;91.60
53876;DHT22;39789;53.216;5.624;2022-09-03T11:13:11;23.30;92.10
53876;DHT22;39789;53.216;5.624;2022-09-03T11:15:48;23.20;91.60
53876;DHT22;39789;53.216;5.624;2022-09-03T11:18:31;23.10;92.40
53876;DHT22;39789;53.216;5.624;2022-09-03T11:21:02;23.40;91.30
53876;DHT22;39789;53.216;5.624;2022-09-03T11:23:32;23.40;91.50
53876;DHT22;39789;53.216;5.624;2022-09-03T11:26:04;23.40;91.90
53876;DHT22;39789;53.216;5.624;2022-09-03T11:29:10;23.50;91.60
53876;DHT22;39789;53.216;5.624;2022-09-03T11:31:58;23.60;91.00
53876;DHT22;39789;53.216;5.624;2022-09-03T11:34:47;23.70;89.80
53876;DHT22;39789;53.216;5.624;2022-09-03T11:37:18;23.90;89.90
53876;DHT22;39789;53.216;5.624;2022-09-03T11:45:13;23.90;89.50
53876;DHT22;39789;53.216;5.624;2022-09-03T11:47:44;23.90;89.30
53876;DHT22;39789;53.216;5.624;2022-09-03T11:50:28;24.40;90.00
53876;DHT22;39789;53.216;5.624;2022-09-03T11:53:25;24.10;87.90
53876;DHT22;39789;53.216;5.624;2022-09-03T12:00:52;24.20;87.90
53876;DHT22;39789;53.216;5.624;2022-09-03T12:03:25;24.20;88.40
53876;DHT22;39789;53.216;5.624;2022-09-03T12:15:05;24.30;87.30
53876;DHT22;39789;53.216;5.624;2022-09-03T12:18:03;24.40;84.20
53876;DHT22;39789;53.216;5.624;2022-09-03T12:23:41;24.40;82.40
53876;DHT22;39789;53.216;5.624;2022-09-03T12:26:10;24.40;83.90
53876;DHT22;39789;53.216;5.624;2022-09-03T12:28:44;24.90;84.20
53876;DHT22;39789;53.216;5.624;2022-09-03T12:31:22;24.50;83.30
53876;DHT22;39789;53.216;5.624;2022-09-03T12:33:51;24.60;82.40
53876;DHT22;39789;53.216;5.624;2022-09-03T12:36:19;24.50;83.50
53876;DHT22;39789;53.216;5.624;2022-09-03T12:38:45;25.00;84.10
53876;DHT22;39789;53.216;5.624;2022-09-03T12:41:23;24.70;84.00
53876;DHT22;39789;53.216;5.624;2022-09-03T12:43:53;24.80;84.50
53876;DHT22;39789;53.216;5.624;2022-09-03T12:46:23;24.80;83.00
53876;DHT22;39789;53.216;5.624;2022-09-03T12:49:04;24.80;82.50
53876;DHT22;39789;53.216;5.624;2022-09-03T12:51:40;24.90;80.30
53876;DHT22;39789;53.216;5.624;2022-09-03T12:54:09;25.00;80.30
53876;DHT22;39789;53.216;5.624;2022-09-03T12:56:41;25.00;81.50
53876;DHT22;39789;53.216;5.624;2022-09-03T12:59:16;24.90;80.30
53876;DHT22;39789;53.216;5.624;2022-09-03T13:01:55;24.80;79.50
53876;DHT22;39789;53.216;5.624;2022-09-03T13:04:32;24.90;78.70
53876;DHT22;39789;53.216;5.624;2022-09-03T13:07:04;24.90;78.40
53876;DHT22;39789;53.216;5.624;2022-09-03T13:09:35;25.00;79.90
53876;DHT22;39789;53.216;5.624;2022-09-03T13:12:02;25.00;80.50
53876;DHT22;39789;53.216;5.624;2022-09-03T13:14:45;25.00;79.90
53876;DHT22;39789;53.216;5.624;2022-09-03T13:17:39;25.00;79.50
53876;DHT22;39789;53.216;5.624;2022-09-03T13:21:14;25.20;79.10
53876;DHT22;39789;53.216;5.624;2022-09-03T13:26:41;25.20;78.70
53876;DHT22;39789;53.216;5.624;2022-09-03T13:29:24;25.10;77.60
53876;DHT22;39789;53.216;5.624;2022-09-03T13:31:59;25.00;78.20
53876;DHT22;39789;53.216;5.624;2022-09-03T13:34:36;25.00;80.00
53876;DHT22;39789;53.216;5.624;2022-09-03T13:37:38;25.10;79.50
53876;DHT22;39789;53.216;5.624;2022-09-03T13:43:04;25.20;78.50
53876;DHT22;39789;53.216;5.624;2022-09-03T13:45:42;25.20;78.50
53876;DHT22;39789;53.216;5.624;2022-09-03T13:48:27;25.10;78.20
53876;DHT22;39789;53.216;5.624;2022-09-03T13:51:23;25.10;77.60
53876;DHT22;39789;53.216;5.624;2022-09-03T13:54:07;25.20;79.30
53876;DHT22;39789;53.216;5.624;2022-09-03T13:56:56;25.20;78.80
53876;DHT22;39789;53.216;5.624;2022-09-03T13:59:45;25.30;77.80
53876;DHT22;39789;53.216;5.624;2022-09-03T14:02:19;25.30;78.20
53876;DHT22;39789;53.216;5.624;2022-09-03T14:05:18;25.30;78.70
53876;DHT22;39789;53.216;5.624;2022-09-03T14:08:22;25.30;78.30
53876;DHT22;39789;53.216;5.624;2022-09-03T14:10:58;25.30;78.00
53876;DHT22;39789;53.216;5.624;2022-09-03T14:21:39;25.30;76.70
53876;DHT22;39789;53.216;5.624;2022-09-03T14:24:25;25.30;76.30
53876;DHT22;39789;53.216;5.624;2022-09-03T14:26:57;25.20;77.20
53876;DHT22;39789;53.216;5.624;2022-09-03T14:29:27;25.20;77.90
53876;DHT22;39789;53.216;5.624;2022-09-03T14:40:10;25.10;75.40
53876;DHT22;39789;53.216;5.624;2022-09-03T14:43:09;25.10;77.00
53876;DHT22;39789;53.216;5.624;2022-09-03T14:45:43;25.10;76.60
53876;DHT22;39789;53.216;5.624;2022-09-03T14:54:56;25.20;76.40
53876;DHT22;39789;53.216;5.624;2022-09-03T15:07:54;25.00;76.90
53876;DHT22;39789;53.216;5.624;2022-09-03T15:10:45;25.00;77.10
53876;DHT22;39789;53.216;5.624;2022-09-03T15:13:24;25.00;76.30
53876;DHT22;39789;53.216;5.624;2022-09-03T15:18:28;25.00;76.60
53876;DHT22;39789;53.216;5.624;2022-09-03T15:21:19;25.10;76.10
53876;DHT22;39789;53.216;5.624;2022-09-03T15:24:09;25.10;74.60
53876;DHT22;39789;53.216;5.624;2022-09-03T15:27:36;25.10;75.70
53876;DHT22;39789;53.216;5.624;2022-09-03T15:29:36;25.00;75.60
53876;DHT22;39789;53.216;5.624;2022-09-03T15:37:51;24.90;75.50
53876;DHT22;39789;53.216;5.624;2022-09-03T15:40:47;24.90;75.60
53876;DHT22;39789;53.216;5.624;2022-09-03T15:43:26;24.90;75.70
53876;DHT22;39789;53.216;5.624;2022-09-03T15:46:27;24.90;76.90
53876;DHT22;39789;53.216;5.624;2022-09-03T15:49:02;24.90;76.40
53876;DHT22;39789;53.216;5.624;2022-09-03T15:57:06;24.80;77.80
53876;DHT22;39789;53.216;5.624;2022-09-03T16:00:01;24.80;77.70
53876;DHT22;39789;53.216;5.624;2022-09-03T16:08:31;24.60;77.40
53876;DHT22;39789;53.216;5.624;2022-09-03T16:14:09;24.40;77.50
53876;DHT22;39789;53.216;5.624;2022-09-03T16:16:58;24.30;77.50
53876;DHT22;39789;53.216;5.624;2022-09-03T16:19:45;24.20;77.10
53876;DHT22;39789;53.216;5.624;2022-09-03T16:22:26;24.20;77.40
53876;DHT22;39789;53.216;5.624;2022-09-03T16:25:11;24.20;77.70
53876;DHT22;39789;53.216;5.624;2022-09-03T16:27:51;24.00;78.20
53876;DHT22;39789;53.216;5.624;2022-09-03T16:30:49;24.00;78.10
53876;DHT22;39789;53.216;5.624;2022-09-03T16:33:36;24.00;78.30
53876;DHT22;39789;53.216;5.624;2022-09-03T16:39:11;23.90;78.90
53876;DHT22;39789;53.216;5.624;2022-09-03T16:49:51;23.70;78.50
53876;DHT22;39789;53.216;5.624;2022-09-03T16:52:35;23.60;78.60
53876;DHT22;39789;53.216;5.624;2022-09-03T17:00:13;23.50;80.00
53876;DHT22;39789;53.216;5.624;2022-09-03T17:14:24;23.00;82.70
53876;DHT22;39789;53.216;5.624;2022-09-03T17:17:02;22.90;82.70
53876;DHT22;39789;53.216;5.624;2022-09-03T17:19:48;22.70;83.20
53876;DHT22;39789;53.216;5.624;2022-09-03T17:22:39;22.60;83.60
53876;DHT22;39789;53.216;5.624;2022-09-03T17:30:53;22.30;84.90
53876;DHT22;39789;53.216;5.624;2022-09-03T17:36:36;22.10;85.50
53876;DHT22;39789;53.216;5.624;2022-09-03T17:42:03;21.90;86.30
53876;DHT22;39789;53.216;5.624;2022-09-03T17:48:06;21.70;87.50
53876;DHT22;39789;53.216;5.624;2022-09-03T17:50:56;21.50;87.50
53876;DHT22;39789;53.216;5.624;2022-09-03T17:54:05;21.30;89.70
53876;DHT22;39789;53.216;5.624;2022-09-03T17:56:54;21.30;90.50
53876;DHT22;39789;53.216;5.624;2022-09-03T18:04:48;20.70;91.80
53876;DHT22;39789;53.216;5.624;2022-09-03T18:07:25;20.40;91.80
53876;DHT22;39789;53.216;5.624;2022-09-03T18:15:28;19.80;93.00
53876;DHT22;39789;53.216;5.624;2022-09-03T18:17:57;19.60;93.80
53876;DHT22;39789;53.216;5.624;2022-09-03T18:20:24;19.60;93.20
53876;DHT22;39789;53.216;5.624;2022-09-03T18:23:28;19.50;93.40
53876;DHT22;39789;53.216;5.624;2022-09-03T18:26:20;19.50;93.90
53876;DHT22;39789;53.216;5.624;2022-09-03T18:29:16;19.50;93.60
53876;DHT22;39789;53.216;5.624;2022-09-03T18:32:04;19.50;93.80
53876;DHT22;39789;53.216;5.624;2022-09-03T18:34:48;19.50;93.50
53876;DHT22;39789;53.216;5.624;2022-09-03T18:37:32;19.40;93.60
53876;DHT22;39789;53.216;5.624;2022-09-03T18:47:59;19.10;95.10
53876;DHT22;39789;53.216;5.624;2022-09-03T18:56:54;18.50;96.70
53876;DHT22;39789;53.216;5.624;2022-09-03T19:00:04;18.30;96.10
53876;DHT22;39789;53.216;5.624;2022-09-03T19:03:07;17.90;97.70
53876;DHT22;39789;53.216;5.624;2022-09-03T19:18:21;18.00;98.80
53876;DHT22;39789;53.216;5.624;2022-09-03T19:21:12;18.00;98.90
53876;DHT22;39789;53.216;5.624;2022-09-03T19:24:00;18.00;98.90
53876;DHT22;39789;53.216;5.624;2022-09-03T19:27:00;18.00;99.20
53876;DHT22;39789;53.216;5.624;2022-09-03T19:33:05;18.00;99.90
53876;DHT22;39789;53.216;5.624;2022-09-03T19:36:12;18.00;99.90
53876;DHT22;39789;53.216;5.624;2022-09-03T19:39:23;17.90;99.90
53876;DHT22;39789;53.216;5.624;2022-09-03T19:45:11;17.80;99.90
53876;DHT22;39789;53.216;5.624;2022-09-03T19:51:07;18.00;99.90
53876;DHT22;39789;53.216;5.624;2022-09-03T19:53:55;17.80;99.90
53876;DHT22;39789;53.216;5.624;2022-09-03T19:56:41;17.80;99.90
53876;DHT22;39789;53.216;5.624;2022-09-03T19:59:28;17.90;99.90
53876;DHT22;39789;53.216;5.624;2022-09-03T20:02:16;17.80;99.90
53876;DHT22;39789;53.216;5.624;2022-09-03T20:05:01;17.80;99.90
53876;DHT22;39789;53.216;5.624;2022-09-03T20:11:28;17.80;99.90
53876;DHT22;39789;53.216;5.624;2022-09-03T20:13:56;17.90;99.90
53876;DHT22;39789;53.216;5.624;2022-09-03T20:19:53;17.60;99.90
53876;DHT22;39789;53.216;5.624;2022-09-03T20:28:30;17.60;99.90
53876;DHT22;39789;53.216;5.624;2022-09-03T20:33:47;17.50;99.90
53876;DHT22;39789;53.216;5.624;2022-09-03T20:36:38;17.40;99.90
53876;DHT22;39789;53.216;5.624;2022-09-03T20:39:51;17.40;99.90
53876;DHT22;39789;53.216;5.624;2022-09-03T20:43:03;17.40;99.90
53876;DHT22;39789;53.216;5.624;2022-09-03T20:51:02;17.20;99.90
53876;DHT22;39789;53.216;5.624;2022-09-03T20:53:51;17.20;99.90
53876;DHT22;39789;53.216;5.624;2022-09-03T20:56:38;17.20;99.90
53876;DHT22;39789;53.216;5.624;2022-09-03T21:04:20;17.10;99.90